Time;durP1;ratioP1;P1;durP2;ratioP2;P2;SDS_P1;SDS_P2;PMS_P1;PMS_P2;Temp;Humidity;BMP_temperature;BMP_pressure;BME280_temperature;BME280_humidity;BME280_pressure;Samples;Min_cycle;Max_cycle;Signal;HPM_P1;HPM_P2
2023/01/08 08:23:08;;;;;;;5.03;2.60;;;2.50;99.90;;;;;;5132344;27;20289;-76
2023/01/08 08:27:44;;;;;;;4.83;3.10;;;2.50;99.90;;;;;;5132806;27;20278;-76
2023/01/08 08:30:11;;;;;;;3.30;2.73;;;2.70;99.90;;;;;;5131919;28;20438;-77
2023/01/08 08:32:37;;;;;;;4.10;2.43;;;2.80;99.90;;;;;;5134148;28;20246;-78
2023/01/08 08:35:04;;;;;;;4.07;2.83;;;3.10;99.90;;;;;;5134431;27;20440;-77
2023/01/08 08:37:29;;;;;;;3.13;2.40;;;3.30;99.90;;;;;;5131902;27;20201;-77
2023/01/08 08:39:55;;;;;;;2.40;2.20;;;3.30;99.90;;;;;;5130950;28;20416;-77
2023/01/08 08:42:21;;;;;;;3.20;2.33;;;3.40;99.90;;;;;;5134916;27;20189;-78
2023/01/08 08:44:46;;;;;;;2.93;2.30;;;3.40;99.90;;;;;;5139797;27;20200;-78
2023/01/08 08:47:12;;;;;;;3.40;2.50;;;3.50;99.90;;;;;;5143237;27;20198;-78
2023/01/08 08:49:38;;;;;;;2.30;2.13;;;3.50;99.90;;;;;;5142064;27;20170;-78
2023/01/08 08:52:04;;;;;;;2.67;2.47;;;3.70;99.90;;;;;;5139566;27;20595;-78
2023/01/08 08:54:30;;;;;;;2.40;2.20;;;3.80;99.90;;;;;;5141073;27;20400;-78
2023/01/08 08:56:56;;;;;;;3.43;2.33;;;3.80;99.90;;;;;;5139292;28;20175;-78
2023/01/08 08:59:21;;;;;;;2.90;2.47;;;3.90;99.90;;;;;;5140503;27;20187;-78
2023/01/08 09:01:47;;;;;;;4.97;3.13;;;4.00;99.90;;;;;;5141749;27;20199;-77
2023/01/08 09:04:13;;;;;;;5.57;3.53;;;4.00;99.90;;;;;;5136164;27;20235;-77
2023/01/08 09:06:39;;;;;;;3.77;2.63;;;4.00;99.90;;;;;;5130975;28;20203;-77
2023/01/08 09:09:04;;;;;;;3.53;2.03;;;4.00;99.90;;;;;;5134571;27;20591;-78
2023/01/08 09:11:30;;;;;;;6.13;2.30;;;4.00;99.90;;;;;;5133701;28;20195;-78
2023/01/08 09:13:56;;;;;;;3.03;2.10;;;4.00;99.90;;;;;;5139012;28;20175;-78
2023/01/08 09:16:22;;;;;;;3.23;2.17;;;4.10;99.90;;;;;;5132385;28;20469;-78
2023/01/08 09:18:48;;;;;;;2.60;2.40;;;4.40;99.90;;;;;;5134477;28;20179;-79
2023/01/08 09:21:14;;;;;;;3.60;2.20;;;4.60;99.90;;;;;;5134135;27;20188;-77
2023/01/08 09:23:40;;;;;;;4.33;2.67;;;4.60;99.90;;;;;;5131219;28;20417;-77
2023/01/08 09:26:06;;;;;;;3.27;2.50;;;4.70;99.90;;;;;;5131335;27;20214;-77
2023/01/08 09:28:32;;;;;;;2.97;2.17;;;5.00;99.90;;;;;;5130917;28;20179;-78
2023/01/08 09:31:03;;;;;;;3.57;2.37;;;5.20;99.90;;;;;;5132893;27;20675;-77
2023/01/08 09:33:30;;;;;;;3.90;2.90;;;5.30;99.90;;;;;;5135814;27;20178;-78
2023/01/08 09:35:55;;;;;;;6.20;3.37;;;5.40;99.90;;;;;;5133133;28;20683;-77
2023/01/08 09:38:21;;;;;;;3.43;2.50;;;5.50;99.90;;;;;;5123037;27;20177;-77
2023/01/08 09:40:58;;;;;;;2.40;1.90;;;5.80;99.90;;;;;;5119084;28;20563;-76
2023/01/08 09:43:27;;;;;;;2.90;2.00;;;6.00;99.90;;;;;;5122917;28;20170;-77
2023/01/08 09:45:56;;;;;;;2.73;2.30;;;6.10;99.90;;;;;;5117486;28;20200;-78
2023/01/08 09:48:35;;;;;;;3.13;2.20;;;6.10;99.90;;;;;;5117324;28;20179;-77
2023/01/08 09:51:01;;;;;;;3.23;2.20;;;6.10;99.90;;;;;;5117655;28;20560;-78
2023/01/08 09:53:27;;;;;;;2.37;2.03;;;6.00;99.90;;;;;;5118967;28;20179;-78
2023/01/08 09:56:09;;;;;;;1.87;1.60;;;5.80;99.90;;;;;;5116819;28;20267;-78
2023/01/08 09:58:37;;;;;;;2.43;1.90;;;5.70;99.90;;;;;;5116355;28;20256;-77
2023/01/08 10:01:04;;;;;;;2.03;1.70;;;5.80;99.90;;;;;;5117777;28;20248;-77
2023/01/08 10:03:41;;;;;;;3.37;1.67;;;5.80;99.90;;;;;;5117927;28;20251;-78
2023/01/08 10:06:10;;;;;;;2.40;1.93;;;5.90;99.90;;;;;;5116512;28;20205;-76
2023/01/08 10:08:35;;;;;;;2.77;1.70;;;5.90;99.90;;;;;;5118938;28;20310;-77
2023/01/08 10:11:03;;;;;;;1.80;1.60;;;5.90;99.90;;;;;;5118754;28;20213;-78
2023/01/08 10:13:28;;;;;;;2.40;2.10;;;6.00;99.90;;;;;;5120220;28;20251;-78
2023/01/08 10:15:54;;;;;;;2.83;2.00;;;6.00;99.90;;;;;;5122179;28;20205;-78
2023/01/08 10:18:24;;;;;;;5.13;3.20;;;6.00;99.90;;;;;;5121669;28;20231;-78
2023/01/08 10:33:30;;;;;;;3.30;2.90;;;5.70;99.90;;;;;;5133022;27;20283;-78
2023/01/08 10:39:24;;;;;;;3.57;3.03;;;5.70;99.90;;;;;;5113796;27;20930;-78
2023/01/08 10:44:15;;;;;;;5.37;3.20;;;5.80;99.90;;;;;;5012927;28;20540;-77
2023/01/08 10:49:34;;;;;;;3.67;3.10;;;6.10;99.90;;;;;;5093919;28;20541;-77
2023/01/08 10:53:44;;;;;;;6.60;3.10;;;6.40;99.90;;;;;;5175026;27;20523;-77
2023/01/08 10:57:33;;;;;;;3.80;2.80;;;6.60;99.90;;;;;;5124443;27;20283;-78
2023/01/08 11:01:31;;;;;;;19.73;12.33;;;6.90;99.90;;;;;;5072035;28;21135;-77
2023/01/08 11:04:02;;;;;;;4.27;2.67;;;7.10;99.90;;;;;;5071449;28;20174;-77
2023/01/08 11:06:43;;;;;;;16.20;6.97;;;7.30;99.90;;;;;;5071498;28;20170;-78
2023/01/08 11:09:26;;;;;;;5.87;3.60;;;7.50;99.90;;;;;;5071858;28;20169;-78
2023/01/08 11:11:52;;;;;;;11.00;5.63;;;7.60;99.90;;;;;;5071579;28;20729;-77
2023/01/08 11:14:25;;;;;;;6.40;4.10;;;7.70;99.90;;;;;;5071439;28;20217;-78
2023/01/08 11:16:52;;;;;;;6.20;4.10;;;7.90;99.90;;;;;;5069371;28;20622;-77
2023/01/08 11:19:30;;;;;;;5.63;3.67;;;7.90;99.90;;;;;;5070536;28;20175;-77
2023/01/08 11:22:02;;;;;;;7.00;4.70;;;7.90;99.90;;;;;;5070416;28;20196;-78
2023/01/08 11:24:39;;;;;;;6.30;4.63;;;7.90;99.90;;;;;;5070642;28;20161;-77
2023/01/08 11:27:07;;;;;;;5.07;3.67;;;7.60;99.90;;;;;;5069643;28;20254;-77
2023/01/08 11:29:46;;;;;;;4.33;3.40;;;7.50;99.90;;;;;;5069344;28;20187;-77
2023/01/08 11:32:14;;;;;;;6.93;4.83;;;7.40;99.90;;;;;;5068775;28;20689;-77
2023/01/08 11:34:58;;;;;;;5.83;4.50;;;7.50;99.90;;;;;;5068992;28;20241;-77
2023/01/08 11:37:30;;;;;;;4.70;3.87;;;7.40;99.90;;;;;;5068944;28;20177;-77
2023/01/08 11:42:57;;;;;;;5.87;4.53;;;7.50;99.90;;;;;;5111755;27;21129;-77
2023/01/08 13:31:23;;;;;;;2.90;1.97;;;7.30;99.90;;;;;;5112140;27;21076;-77
2023/01/08 13:36:57;;;;;;;5.27;3.33;;;7.50;99.90;;;;;;5071635;28;20554;-77
2023/01/08 13:42:30;;;;;;;12.07;6.43;;;7.70;99.90;;;;;;5091955;27;20538;-77
2023/01/08 13:47:32;;;;;;;12.93;6.70;;;7.80;99.90;;;;;;5112298;27;20530;-77
2023/01/08 13:52:44;;;;;;;5.47;3.80;;;7.90;99.90;;;;;;5111924;27;20562;-77
